createdAt,value
2018-07-25T00:00:02.192Z,7.95
2018-07-25T00:02:30.492Z,8.35
2018-07-25T00:04:58.613Z,7.50
2018-07-25T00:07:26.810Z,7.53
2018-07-25T00:09:57.141Z,7.90
2018-07-25T00:12:25.783Z,7.87
2018-07-25T00:14:53.982Z,8.13
2018-07-25T00:21:41.986Z,7.87
2018-07-25T00:24:10.109Z,8.20
2018-07-25T00:26:38.257Z,7.50
2018-07-25T00:29:06.358Z,7.67
2018-07-25T00:31:34.448Z,8.43
2018-07-25T00:34:02.802Z,8.68
2018-07-25T00:36:31.080Z,8.56
2018-07-25T00:38:59.306Z,8.65
2018-07-25T00:41:28.016Z,7.75
2018-07-25T00:43:56.167Z,8.47
2018-07-25T00:46:24.406Z,7.90
2018-07-25T00:48:53.395Z,8.48
2018-07-25T00:51:21.555Z,8.60
2018-07-25T00:53:49.656Z,7.90
2018-07-25T00:56:17.777Z,8.70
2018-07-25T00:58:45.849Z,8.37
2018-07-25T01:01:13.990Z,7.90
2018-07-25T01:03:42.105Z,7.93
2018-07-25T01:06:10.219Z,7.55
2018-07-25T01:08:38.517Z,8.53
2018-07-25T01:11:06.609Z,7.90
2018-07-25T01:13:34.723Z,8.67
2018-07-25T01:16:02.829Z,7.40
2018-07-25T01:18:30.975Z,7.65
2018-07-25T01:20:59.082Z,7.75
2018-07-25T01:23:27.223Z,8.57
2018-07-25T01:25:55.324Z,7.90
2018-07-25T01:28:23.580Z,8.03
2018-07-25T01:30:52.438Z,8.47
2018-07-25T01:33:20.613Z,8.03
2018-07-25T01:35:48.731Z,8.07
2018-07-25T01:38:16.924Z,7.70
2018-07-25T01:40:45.615Z,7.60
2018-07-25T01:43:13.972Z,8.20
2018-07-25T01:45:42.098Z,7.57
2018-07-25T01:48:10.300Z,7.85
2018-07-25T01:50:38.570Z,8.58
2018-07-25T01:53:06.770Z,7.75
2018-07-25T01:55:34.971Z,7.62
2018-07-25T01:58:03.676Z,7.10
2018-07-25T02:00:31.825Z,7.37
2018-07-25T02:02:59.946Z,7.93
2018-07-25T02:05:28.099Z,8.20
2018-07-25T02:07:56.239Z,7.60
2018-07-25T02:10:24.795Z,8.00
2018-07-25T02:12:53.979Z,7.50
2018-07-25T02:15:22.614Z,8.10
2018-07-25T02:17:50.828Z,7.20
2018-07-25T02:20:18.993Z,7.63
2018-07-25T02:22:47.124Z,7.73
2018-07-25T02:25:15.282Z,8.13
2018-07-25T02:27:43.528Z,8.87
2018-07-25T02:30:11.664Z,7.90
2018-07-25T02:32:39.804Z,7.67
2018-07-25T02:35:07.908Z,7.47
2018-07-25T02:37:36.032Z,7.40
2018-07-25T02:40:04.172Z,8.23
2018-07-25T02:42:32.628Z,7.65
2018-07-25T02:45:00.721Z,8.00
2018-07-25T02:47:28.828Z,7.00
2018-07-25T02:49:56.983Z,7.43
2018-07-25T02:52:25.311Z,7.90
2018-07-25T02:54:53.892Z,7.85
2018-07-25T02:57:21.988Z,7.90
2018-07-25T02:59:50.071Z,6.97
2018-07-25T03:02:18.315Z,8.67
2018-07-25T03:04:46.528Z,7.37
2018-07-25T03:07:14.616Z,7.70
2018-07-25T03:09:42.724Z,7.73
2018-07-25T03:12:10.880Z,7.62
2018-07-25T03:14:38.992Z,7.73
2018-07-25T03:17:07.386Z,8.58
2018-07-25T03:19:35.458Z,7.20
2018-07-25T03:22:03.717Z,7.47
2018-07-25T03:24:31.831Z,7.60
2018-07-25T03:26:59.931Z,7.30
2018-07-25T03:29:28.212Z,8.40
2018-07-25T03:31:56.367Z,8.03
2018-07-25T03:34:24.591Z,7.83
2018-07-25T03:36:52.691Z,8.10
2018-07-25T03:39:20.930Z,8.80
2018-07-25T03:41:49.038Z,9.43
2018-07-25T03:44:17.196Z,14.78
2018-07-25T03:46:45.651Z,12.43
2018-07-25T03:49:13.873Z,12.73
2018-07-25T03:51:42.086Z,10.90
2018-07-25T03:54:10.389Z,10.17
2018-07-25T03:56:38.546Z,9.30
2018-07-25T03:59:06.720Z,9.93
2018-07-25T04:01:34.849Z,9.85
2018-07-25T04:04:03.074Z,9.50
2018-07-25T04:06:31.228Z,10.00
2018-07-25T04:08:59.367Z,9.35
2018-07-25T04:11:27.887Z,9.40
2018-07-25T04:13:56.031Z,9.60
2018-07-25T04:16:24.466Z,9.97
2018-07-25T04:18:52.570Z,9.40
2018-07-25T04:21:20.641Z,9.27
2018-07-25T04:23:48.752Z,10.00
2018-07-25T04:26:16.838Z,10.23
2018-07-25T04:28:45.338Z,10.23
2018-07-25T04:31:13.481Z,9.83
2018-07-25T04:33:41.623Z,9.70
2018-07-25T04:36:10.038Z,9.83
2018-07-25T04:38:38.259Z,9.88
2018-07-25T04:41:06.441Z,9.83
2018-07-25T04:43:34.559Z,11.10
2018-07-25T04:46:02.843Z,16.77
2018-07-25T04:48:30.960Z,20.37
2018-07-25T04:50:59.048Z,22.02
2018-07-25T04:53:27.273Z,23.93
2018-07-25T04:55:55.430Z,25.73
2018-07-25T04:58:24.796Z,24.77
2018-07-25T05:00:52.912Z,26.77
2018-07-25T05:03:21.049Z,28.07
2018-07-25T05:05:49.175Z,25.73
2018-07-25T05:08:17.682Z,27.33
2018-07-25T05:10:45.766Z,28.57
2018-07-25T05:13:13.898Z,27.77
2018-07-25T05:15:42.018Z,29.80
2018-07-25T05:18:10.142Z,28.05
2018-07-25T05:20:38.550Z,26.73
2018-07-25T05:23:06.732Z,26.12
2018-07-25T05:25:34.875Z,26.70
2018-07-25T05:28:03.054Z,30.07
2018-07-25T05:30:31.177Z,30.70
2018-07-25T05:32:59.547Z,24.03
2018-07-25T05:35:34.053Z,15.80
2018-07-25T05:38:02.155Z,12.78
2018-07-25T05:40:30.265Z,14.50
2018-07-25T05:42:58.333Z,13.03
2018-07-25T05:45:26.438Z,11.80
2018-07-25T05:47:54.728Z,11.55
2018-07-25T05:50:22.909Z,11.47
2018-07-25T05:52:51.004Z,10.83
2018-07-25T05:55:19.073Z,11.47
2018-07-25T05:57:47.145Z,11.47
2018-07-25T06:00:15.213Z,10.57
2018-07-25T06:02:43.388Z,11.07
2018-07-25T06:05:11.447Z,11.10
2018-07-25T06:07:39.565Z,11.05
2018-07-25T06:10:07.738Z,10.63
2018-07-25T06:12:35.892Z,10.50
2018-07-25T06:15:04.350Z,10.80
2018-07-25T06:17:32.616Z,10.75
2018-07-25T06:20:01.818Z,10.90
2018-07-25T06:22:30.024Z,11.00
2018-07-25T06:24:58.930Z,11.07
2018-07-25T06:27:27.374Z,10.30
2018-07-25T06:29:55.603Z,11.03
2018-07-25T06:32:23.865Z,10.60
2018-07-25T06:34:52.049Z,10.47
2018-07-25T06:37:20.156Z,11.93
2018-07-25T06:39:48.523Z,12.23
2018-07-25T06:42:16.875Z,12.20
2018-07-25T06:44:44.999Z,10.80
2018-07-25T06:47:13.317Z,12.13
2018-07-25T06:49:41.461Z,10.38
2018-07-25T06:52:09.740Z,13.40
2018-07-25T06:54:37.899Z,12.13
2018-07-25T06:57:06.065Z,11.17
2018-07-25T06:59:35.189Z,12.40
2018-07-25T07:02:03.419Z,13.70
2018-07-25T07:04:31.535Z,13.60
2018-07-25T07:07:00.269Z,12.80
2018-07-25T07:09:28.544Z,13.40
2018-07-25T07:11:56.719Z,14.47
2018-07-25T07:14:25.490Z,12.30
2018-07-25T07:16:53.617Z,12.50
2018-07-25T07:19:21.796Z,12.33
2018-07-25T07:21:50.160Z,13.60
2018-07-25T07:24:18.322Z,12.50
2018-07-25T07:26:46.733Z,11.80
2018-07-25T07:29:14.891Z,13.17
2018-07-25T07:31:43.094Z,15.48
2018-07-25T07:34:11.357Z,15.08
2018-07-25T07:36:39.512Z,15.93
2018-07-25T07:39:10.075Z,16.37
2018-07-25T07:41:38.274Z,16.37
2018-07-25T07:44:06.572Z,14.20
2018-07-25T07:46:34.702Z,16.93
2018-07-25T07:49:03.201Z,17.50
2018-07-25T07:51:31.792Z,16.60
2018-07-25T07:54:00.118Z,16.55
2018-07-25T07:56:28.517Z,16.00
2018-07-25T07:58:56.990Z,15.70
2018-07-25T08:01:25.382Z,15.23
2018-07-25T08:03:53.569Z,14.40
2018-07-25T08:06:22.054Z,14.17
2018-07-25T08:08:50.827Z,13.80
2018-07-25T08:11:21.332Z,12.20
2018-07-25T08:14:06.328Z,14.03
2018-07-25T08:16:41.508Z,12.37
2018-07-25T08:19:10.393Z,11.40
2018-07-25T08:21:38.602Z,12.20
2018-07-25T08:24:07.809Z,11.13
2018-07-25T08:26:36.155Z,11.90
2018-07-25T08:29:04.342Z,11.80
2018-07-25T08:31:32.565Z,11.17
2018-07-25T08:34:00.814Z,10.73
2018-07-25T08:36:29.091Z,11.80
2018-07-25T08:38:57.243Z,10.40
2018-07-25T08:41:30.958Z,10.36
2018-07-25T08:43:59.292Z,9.80
2018-07-25T08:46:27.494Z,10.93
2018-07-25T08:48:55.585Z,9.20
2018-07-25T08:51:23.779Z,10.67
2018-07-25T08:53:52.153Z,10.20
2018-07-25T08:56:20.890Z,9.93
2018-07-25T08:58:49.022Z,9.60
2018-07-25T09:01:17.139Z,10.97
2018-07-25T09:03:45.533Z,11.20
2018-07-25T09:06:13.769Z,10.40
2018-07-25T09:08:41.965Z,9.83
2018-07-25T09:11:10.074Z,10.50
2018-07-25T09:13:38.181Z,10.32
2018-07-25T09:16:06.423Z,9.80
2018-07-25T09:18:34.595Z,9.87
2018-07-25T09:21:02.756Z,11.00
2018-07-25T09:23:30.944Z,9.44
2018-07-25T09:25:59.067Z,10.70
2018-07-25T09:28:27.289Z,10.70
2018-07-25T09:30:55.892Z,10.00
2018-07-25T09:33:24.135Z,9.73
2018-07-25T09:35:52.273Z,9.57
2018-07-25T09:38:20.398Z,8.80
2018-07-25T09:40:48.562Z,9.40
2018-07-25T09:43:16.867Z,9.40
2018-07-25T09:45:45.233Z,9.03
2018-07-25T09:48:13.714Z,7.97
2018-07-25T09:50:41.858Z,8.10
2018-07-25T09:53:10.014Z,8.00
2018-07-25T09:55:38.162Z,7.20
2018-07-25T09:58:06.527Z,6.90
2018-07-25T10:00:39.919Z,6.50
2018-07-25T10:03:08.040Z,7.28
2018-07-25T10:05:36.176Z,6.40
2018-07-25T10:08:04.398Z,6.37
2018-07-25T10:10:32.549Z,6.50
2018-07-25T10:13:00.727Z,7.83
2018-07-25T10:15:28.972Z,6.90
2018-07-25T10:17:57.319Z,6.70
2018-07-25T10:20:26.087Z,7.47
2018-07-25T10:22:54.337Z,7.30
2018-07-25T10:25:22.536Z,7.23
2018-07-25T10:27:50.687Z,7.47
2018-07-25T10:30:18.858Z,7.53
2018-07-25T10:32:47.096Z,7.27
2018-07-25T10:35:15.278Z,7.20
2018-07-25T10:37:43.451Z,7.37
2018-07-25T10:40:11.530Z,6.85
2018-07-25T10:42:39.674Z,7.27
2018-07-25T10:45:09.454Z,7.00
2018-07-25T10:47:37.676Z,5.73
2018-07-25T10:50:06.318Z,6.65
2018-07-25T10:52:34.547Z,6.67
2018-07-25T10:55:02.798Z,6.60
2018-07-25T10:57:31.263Z,6.57
2018-07-25T10:59:59.515Z,5.13
2018-07-25T11:02:27.759Z,5.53
2018-07-25T11:04:56.532Z,5.75
2018-07-25T11:07:24.913Z,5.37
2018-07-25T11:09:53.263Z,5.73
2018-07-25T11:12:21.515Z,6.60
2018-07-25T11:14:49.913Z,6.77
2018-07-25T11:17:18.291Z,5.53
2018-07-25T11:22:52.923Z,5.87
2018-07-25T11:25:21.710Z,6.57
2018-07-25T11:27:50.211Z,6.07
2018-07-25T11:30:18.643Z,5.63
2018-07-25T11:32:46.995Z,6.47
2018-07-25T11:35:16.001Z,6.90
2018-07-25T11:37:44.131Z,5.87
2018-07-25T11:40:12.370Z,6.07
2018-07-25T11:42:40.693Z,5.90
2018-07-25T11:45:09.023Z,5.62
2018-07-25T11:47:37.313Z,5.90
2018-07-25T11:50:06.356Z,5.77
2018-07-25T11:52:34.892Z,5.23
2018-07-25T11:55:03.245Z,5.77
2018-07-25T11:57:31.395Z,5.20
2018-07-25T11:59:59.970Z,4.50
2018-07-25T12:02:28.358Z,4.53
2018-07-25T12:04:56.806Z,4.22
2018-07-25T12:07:25.239Z,4.40
2018-07-25T12:09:53.592Z,4.65
2018-07-25T12:12:21.917Z,4.28
2018-07-25T12:14:50.306Z,4.37
2018-07-25T12:17:18.885Z,3.62
2018-07-25T12:19:47.880Z,3.90
2018-07-25T12:22:16.380Z,4.15
2018-07-25T12:24:44.926Z,3.67
2018-07-25T12:27:13.497Z,3.52
2018-07-25T12:29:41.926Z,3.37
2018-07-25T12:32:10.064Z,3.60
2018-07-25T12:34:38.204Z,3.12
2018-07-25T12:37:06.375Z,3.57
2018-07-25T12:39:36.736Z,3.39
2018-07-25T12:42:14.061Z,3.60
2018-07-25T12:44:50.498Z,3.97
2018-07-25T12:47:18.723Z,3.57
2018-07-25T12:49:46.847Z,3.93
2018-07-25T12:52:15.148Z,4.05
2018-07-25T12:54:45.053Z,3.30
2018-07-25T12:57:13.134Z,4.10
2018-07-25T12:59:41.397Z,3.67
2018-07-25T13:02:09.611Z,3.90
2018-07-25T13:04:37.811Z,3.50
2018-07-25T13:07:06.027Z,3.62
2018-07-25T13:09:35.082Z,3.65
2018-07-25T13:12:03.237Z,3.60
2018-07-25T13:14:31.450Z,3.16
2018-07-25T13:16:59.568Z,3.42
2018-07-25T13:19:30.887Z,2.96
2018-07-25T13:21:58.995Z,3.37
2018-07-25T13:24:27.190Z,3.08
2018-07-25T13:26:55.366Z,2.50
2018-07-25T13:29:23.576Z,3.00
2018-07-25T13:31:51.862Z,3.02
2018-07-25T13:34:20.013Z,2.87
2018-07-25T13:36:48.081Z,2.55
2018-07-25T13:39:16.482Z,2.35
2018-07-25T13:41:44.635Z,2.15
2018-07-25T13:44:12.971Z,2.40
2018-07-25T13:46:41.235Z,2.12
2018-07-25T13:49:09.571Z,2.60
2018-07-25T13:51:37.775Z,2.27
2018-07-25T13:54:06.188Z,2.57
2018-07-25T13:56:34.282Z,2.60
2018-07-25T13:59:02.466Z,2.55
2018-07-25T14:01:30.610Z,2.20
2018-07-25T14:03:59.550Z,2.38
2018-07-25T14:06:27.810Z,2.37
2018-07-25T14:08:56.454Z,2.45
2018-07-25T14:11:25.713Z,2.58
2018-07-25T14:13:54.603Z,3.00
2018-07-25T14:16:23.271Z,2.75
2018-07-25T14:18:52.334Z,2.90
2018-07-25T14:21:20.505Z,2.95
2018-07-25T14:23:49.057Z,2.55
2018-07-25T14:26:21.088Z,3.20
2018-07-25T14:28:49.483Z,2.50
2018-07-25T14:31:17.793Z,3.40
2018-07-25T14:33:46.680Z,3.40
2018-07-25T14:36:16.591Z,3.00
2018-07-25T14:38:45.079Z,3.10
2018-07-25T14:41:13.632Z,2.60
2018-07-25T14:43:41.835Z,2.72
2018-07-25T14:46:10.206Z,2.67
2018-07-25T14:48:38.405Z,2.63
2018-07-25T14:51:06.676Z,3.15
2018-07-25T14:53:34.786Z,2.70
2018-07-25T14:56:02.968Z,2.67
2018-07-25T14:58:31.118Z,2.50
2018-07-25T15:00:59.514Z,2.60
2018-07-25T15:03:28.442Z,2.50
2018-07-25T15:05:57.635Z,2.52
2018-07-25T15:08:25.939Z,2.37
2018-07-25T15:10:54.059Z,2.52
2018-07-25T15:13:22.334Z,2.65
2018-07-25T15:15:50.698Z,2.60
2018-07-25T15:18:18.927Z,2.85
2018-07-25T15:20:47.390Z,2.45
2018-07-25T15:23:26.046Z,2.70
2018-07-25T15:25:54.492Z,2.20
2018-07-25T15:28:23.002Z,2.45
2018-07-25T15:30:51.976Z,2.65
2018-07-25T15:33:20.152Z,2.40
2018-07-25T15:35:48.716Z,2.00
2018-07-25T15:38:17.267Z,2.62
2018-07-25T15:40:45.549Z,2.20
2018-07-25T15:43:13.658Z,2.10
2018-07-25T15:45:41.747Z,2.97
2018-07-25T15:48:09.833Z,4.67
2018-07-25T15:50:38.053Z,2.30
2018-07-25T15:53:06.088Z,2.52
2018-07-25T15:55:34.296Z,2.47
2018-07-25T15:58:02.354Z,2.50
2018-07-25T16:00:30.477Z,2.87
2018-07-25T16:02:58.604Z,2.43
2018-07-25T16:05:29.126Z,2.70
2018-07-25T16:07:57.757Z,2.60
2018-07-25T16:10:26.113Z,2.70
2018-07-25T16:12:54.304Z,2.72
2018-07-25T16:15:22.485Z,2.72
2018-07-25T16:17:50.739Z,2.10
2018-07-25T16:20:18.906Z,2.95
2018-07-25T16:22:47.313Z,2.47
2018-07-25T16:25:15.692Z,2.40
2018-07-25T16:27:44.055Z,2.30
2018-07-25T16:30:13.653Z,2.83
2018-07-25T16:32:42.348Z,2.63
2018-07-25T16:35:10.617Z,2.50
2018-07-25T16:37:39.223Z,2.10
2018-07-25T16:40:07.342Z,1.90
2018-07-25T16:42:35.602Z,1.77
2018-07-25T16:45:03.842Z,2.47
2018-07-25T16:47:31.962Z,2.17
2018-07-25T16:50:00.090Z,2.40
2018-07-25T16:52:28.446Z,2.30
2018-07-25T16:54:56.666Z,2.00
2018-07-25T16:57:24.883Z,2.50
2018-07-25T16:59:53.158Z,2.37
2018-07-25T17:02:21.414Z,2.40
2018-07-25T17:04:49.505Z,2.40
2018-07-25T17:07:17.649Z,2.80
2018-07-25T17:09:45.837Z,2.50
2018-07-25T17:12:13.951Z,2.63
2018-07-25T17:14:42.148Z,2.20
2018-07-25T17:17:10.234Z,2.20
2018-07-25T17:19:39.404Z,2.70
2018-07-25T17:22:07.668Z,2.15
2018-07-25T17:24:35.841Z,2.43
2018-07-25T17:27:04.327Z,2.60
2018-07-25T17:29:32.682Z,2.33
2018-07-25T17:32:01.097Z,2.37
2018-07-25T17:34:29.512Z,2.90
2018-07-25T17:36:57.702Z,2.80
2018-07-25T17:39:27.117Z,2.50
2018-07-25T17:41:54.005Z,2.57
2018-07-25T17:44:22.418Z,3.33
2018-07-25T17:46:50.944Z,8.90
2018-07-25T17:49:19.109Z,6.00
2018-07-25T17:51:47.326Z,2.97
2018-07-25T17:54:15.550Z,3.77
2018-07-25T17:56:43.651Z,3.05
2018-07-25T17:59:11.910Z,3.02
2018-07-25T18:01:42.274Z,3.55
2018-07-25T18:04:10.422Z,4.10
2018-07-25T18:06:38.697Z,3.40
2018-07-25T18:09:08.310Z,3.60
2018-07-25T18:11:38.408Z,3.47
2018-07-25T18:14:11.265Z,5.20
2018-07-25T18:16:39.770Z,5.95
2018-07-25T18:19:10.981Z,5.03
2018-07-25T18:21:39.363Z,3.70
2018-07-25T18:24:07.570Z,3.30
2018-07-25T18:26:35.778Z,3.55
2018-07-25T18:29:04.087Z,2.98
2018-07-25T18:31:32.187Z,3.07
2018-07-25T18:34:00.398Z,3.40
2018-07-25T18:36:28.562Z,3.20
2018-07-25T18:38:56.755Z,2.90
2018-07-25T18:41:25.002Z,3.33
2018-07-25T18:43:53.134Z,3.43
2018-07-25T18:46:21.550Z,3.43
2018-07-25T18:48:50.646Z,3.70
2018-07-25T18:51:19.552Z,5.10
2018-07-25T18:53:47.730Z,3.63
2018-07-25T18:56:15.956Z,2.60
2018-07-25T18:58:44.057Z,2.80
2018-07-25T19:01:12.482Z,2.10
2018-07-25T19:03:40.675Z,2.15
2018-07-25T19:06:08.826Z,3.10
2018-07-25T19:08:37.134Z,3.07
2018-07-25T19:11:05.338Z,63.23
2018-07-25T19:13:33.492Z,26.94
2018-07-25T19:16:01.994Z,18.10
2018-07-25T19:18:30.214Z,17.20
2018-07-25T19:20:58.594Z,20.13
2018-07-25T19:23:26.779Z,9.97
2018-07-25T19:25:55.213Z,9.63
2018-07-25T19:28:23.557Z,9.30
2018-07-25T19:30:51.697Z,11.30
2018-07-25T19:33:19.826Z,5.97
2018-07-25T19:35:48.166Z,5.13
2018-07-25T19:38:16.355Z,8.90
2018-07-25T19:40:44.449Z,5.87
2018-07-25T19:43:12.758Z,8.63
2018-07-25T19:45:41.005Z,5.67
2018-07-25T19:48:09.099Z,10.37
2018-07-25T19:50:37.216Z,12.53
2018-07-25T19:53:05.590Z,5.47
2018-07-25T19:55:33.785Z,4.35
2018-07-25T19:58:01.875Z,3.40
2018-07-25T20:00:29.983Z,4.30
2018-07-25T20:02:59.034Z,3.25
2018-07-25T20:05:27.404Z,3.17
2018-07-25T20:07:55.502Z,3.90
2018-07-25T20:10:23.674Z,2.90
2018-07-25T20:12:51.816Z,2.80
2018-07-25T20:15:25.270Z,3.90
2018-07-25T20:17:53.392Z,3.37
2018-07-25T20:20:21.500Z,3.10
2018-07-25T20:22:49.650Z,2.90
2018-07-25T20:25:18.813Z,3.10
2018-07-25T20:27:46.958Z,3.30
2018-07-25T20:30:15.350Z,2.70
2018-07-25T20:32:43.724Z,2.40
2018-07-25T20:35:12.848Z,2.30
2018-07-25T20:37:41.097Z,2.60
2018-07-25T20:40:09.668Z,2.40
2018-07-25T20:42:38.029Z,5.43
2018-07-25T20:45:06.939Z,2.80
2018-07-25T20:47:35.453Z,2.60
2018-07-25T20:50:03.885Z,2.27
2018-07-25T20:52:33.515Z,2.23
2018-07-25T20:55:02.615Z,2.60
2018-07-25T20:57:30.831Z,2.33
2018-07-25T20:59:59.267Z,2.60
2018-07-25T21:02:27.500Z,2.57
2018-07-25T21:04:55.642Z,2.70
2018-07-25T21:07:23.802Z,2.58
2018-07-25T21:09:52.012Z,2.45
2018-07-25T21:12:20.482Z,2.73
2018-07-25T21:14:48.965Z,2.50
2018-07-25T21:17:17.318Z,3.10
2018-07-25T21:19:46.154Z,3.10
2018-07-25T21:22:14.579Z,3.10
2018-07-25T21:24:42.813Z,3.47
2018-07-25T21:27:11.344Z,3.40
2018-07-25T21:29:39.539Z,3.50
2018-07-25T21:32:07.942Z,3.10
2018-07-25T21:34:36.275Z,2.73
2018-07-25T21:37:04.470Z,2.80
2018-07-25T21:39:32.626Z,2.67
2018-07-25T21:42:00.830Z,3.65
2018-07-25T21:44:29.010Z,3.27
2018-07-25T21:46:57.294Z,2.70
2018-07-25T21:49:25.614Z,3.00
2018-07-25T21:51:53.734Z,2.80
2018-07-25T21:54:22.179Z,2.95
2018-07-25T21:56:50.374Z,3.15
2018-07-25T22:01:59.927Z,5.97
2018-07-25T22:04:28.034Z,5.00
2018-07-25T22:06:56.363Z,3.92
2018-07-25T22:09:24.469Z,3.23
2018-07-25T22:11:52.630Z,3.53
2018-07-25T22:14:20.750Z,2.67
2018-07-25T22:16:49.221Z,2.72
2018-07-25T22:19:17.370Z,2.87
2018-07-25T22:21:45.610Z,3.13
2018-07-25T22:24:14.711Z,3.23
2018-07-25T22:26:42.923Z,3.20
2018-07-25T22:29:11.035Z,2.90
2018-07-25T22:31:39.122Z,3.00
2018-07-25T22:34:07.424Z,3.10
2018-07-25T22:36:36.543Z,3.03
2018-07-25T22:39:07.402Z,3.13
2018-07-25T22:41:35.527Z,2.83
2018-07-25T22:44:04.391Z,2.90
2018-07-25T22:46:32.730Z,2.92
2018-07-25T22:49:01.372Z,3.12
2018-07-25T22:51:29.494Z,3.52
2018-07-25T22:53:57.623Z,2.93
2018-07-25T22:56:25.726Z,3.50
2018-07-25T22:58:53.839Z,3.37
2018-07-25T23:01:21.962Z,3.50
2018-07-25T23:03:50.221Z,7.33
2018-07-25T23:06:18.338Z,4.03
2018-07-25T23:08:47.273Z,3.50
2018-07-25T23:11:15.771Z,2.90
2018-07-25T23:13:45.852Z,3.03
2018-07-25T23:16:15.705Z,3.27
2018-07-25T23:18:44.010Z,2.90
2018-07-25T23:21:12.135Z,2.90
2018-07-25T23:23:40.291Z,3.03
2018-07-25T23:26:08.554Z,3.90
2018-07-25T23:28:36.698Z,3.67
2018-07-25T23:31:04.806Z,3.60
2018-07-25T23:33:32.951Z,3.17
2018-07-25T23:36:01.082Z,3.40
2018-07-25T23:38:29.295Z,3.60
2018-07-25T23:40:57.375Z,3.43
2018-07-25T23:43:25.573Z,3.20
2018-07-25T23:45:53.769Z,3.73
2018-07-25T23:48:21.881Z,3.30
2018-07-25T23:50:49.966Z,3.27
2018-07-25T23:53:18.074Z,4.00
2018-07-25T23:55:46.373Z,3.23
2018-07-25T23:58:15.162Z,3.42
